Time;durP1;ratioP1;P1;durP2;ratioP2;P2;SDS_P1;SDS_P2;PMS_P1;PMS_P2;Temp;Humidity;BMP_temperature;BMP_pressure;BME280_temperature;BME280_humidity;BME280_pressure;Samples;Min_cycle;Max_cycle;Signal;HPM_P1;HPM_P2
2023/08/21 00:00:33;;;;;;;14.63;11.85;;;21.50;99.90;;;;;;10280650;28;20712;-86
2023/08/21 00:05:36;;;;;;;12.77;10.10;;;21.50;99.90;;;;;;10284114;28;20769;-86
2023/08/21 00:10:40;;;;;;;10.30;8.73;;;21.40;99.90;;;;;;10282289;28;20245;-86
2023/08/21 00:15:43;;;;;;;11.00;9.85;;;21.40;99.90;;;;;;10283821;28;20238;-86
2023/08/21 00:20:46;;;;;;;9.10;8.20;;;21.30;99.90;;;;;;10249732;28;20249;-86
2023/08/21 00:25:48;;;;;;;7.88;7.07;;;21.30;99.90;;;;;;10243137;28;20692;-86
2023/08/21 00:30:51;;;;;;;6.70;6.05;;;21.30;99.90;;;;;;10263302;28;20246;-86
2023/08/21 00:35:53;;;;;;;8.05;7.18;;;21.20;99.90;;;;;;10258660;28;20237;-86
2023/08/21 00:40:57;;;;;;;8.52;7.30;;;21.20;99.90;;;;;;10267207;28;20376;-86
2023/08/21 00:45:59;;;;;;;12.48;7.88;;;21.20;99.90;;;;;;10258375;28;20678;-87
2023/08/21 00:51:03;;;;;;;8.77;7.30;;;21.10;99.90;;;;;;10244135;28;20242;-87
2023/08/21 00:56:07;;;;;;;10.00;8.98;;;21.00;99.90;;;;;;10252839;28;20689;-85
2023/08/21 01:01:11;;;;;;;9.63;8.63;;;20.90;99.90;;;;;;10264482;28;20688;-86
2023/08/21 01:06:13;;;;;;;10.30;9.07;;;20.90;99.90;;;;;;10231759;28;20229;-85
2023/08/21 01:11:42;;;;;;;9.55;8.52;;;20.80;99.90;;;;;;10242247;28;20717;-85
2023/08/21 01:16:51;;;;;;;8.70;7.80;;;20.70;99.90;;;;;;10264434;28;20704;-85
2023/08/21 01:21:54;;;;;;;10.38;7.15;;;20.60;99.90;;;;;;10250697;28;20693;-85
2023/08/21 01:26:56;;;;;;;7.53;6.72;;;20.50;99.90;;;;;;10258385;28;20315;-85
2023/08/21 01:32:09;;;;;;;8.10;7.30;;;20.40;99.90;;;;;;10252390;28;20288;-85
2023/08/21 01:37:13;;;;;;;8.02;7.22;;;20.30;99.90;;;;;;10247647;28;20237;-86
2023/08/21 01:42:15;;;;;;;8.40;6.63;;;20.10;99.90;;;;;;10267124;28;20257;-85
2023/08/21 01:47:17;;;;;;;9.25;6.90;;;19.90;99.90;;;;;;10276132;28;20306;-86
2023/08/21 01:52:20;;;;;;;7.38;6.68;;;19.90;99.90;;;;;;10281196;28;20283;-85
2023/08/21 01:57:23;;;;;;;6.65;6.05;;;20.00;99.90;;;;;;10263105;28;20253;-85
2023/08/21 02:02:25;;;;;;;6.85;6.20;;;20.10;99.90;;;;;;10252331;28;20253;-85
2023/08/21 02:07:28;;;;;;;6.43;5.70;;;20.20;99.90;;;;;;10280241;28;20241;-85
2023/08/21 02:12:31;;;;;;;8.70;7.45;;;20.20;99.90;;;;;;10278606;28;20306;-85
2023/08/21 02:17:34;;;;;;;9.05;6.78;;;20.00;99.90;;;;;;10278791;28;20248;-85
2023/08/21 02:22:36;;;;;;;6.10;5.50;;;20.00;99.90;;;;;;10273156;28;20254;-85
2023/08/21 02:27:39;;;;;;;5.90;5.30;;;19.80;99.90;;;;;;10275773;28;20315;-86
2023/08/21 02:32:42;;;;;;;7.07;6.38;;;19.50;99.90;;;;;;10278798;28;20241;-85
2023/08/21 02:37:44;;;;;;;7.85;6.93;;;19.40;99.90;;;;;;10268965;28;20295;-86
2023/08/21 02:42:47;;;;;;;8.30;7.50;;;19.30;99.90;;;;;;10267167;28;20624;-85
2023/08/21 02:47:49;;;;;;;7.47;5.95;;;19.70;99.90;;;;;;10258455;28;20803;-85
2023/08/21 02:52:52;;;;;;;8.20;6.10;;;19.80;99.90;;;;;;10283778;28;20283;-86
2023/08/21 02:57:55;;;;;;;8.02;6.30;;;19.70;99.90;;;;;;10269589;28;20295;-85
2023/08/21 03:02:57;;;;;;;6.70;5.63;;;19.70;99.90;;;;;;10251251;28;20250;-85
2023/08/21 03:08:00;;;;;;;5.97;5.13;;;19.50;99.90;;;;;;10269650;28;20260;-85
2023/08/21 03:13:03;;;;;;;10.20;6.07;;;19.30;99.90;;;;;;10285380;28;20263;-85
2023/08/21 03:18:05;;;;;;;9.25;5.90;;;19.20;99.90;;;;;;10267544;28;20245;-85
2023/08/21 03:23:08;;;;;;;6.68;5.82;;;18.90;99.90;;;;;;10244296;28;20253;-86
2023/08/21 03:28:11;;;;;;;5.75;5.18;;;18.80;99.90;;;;;;10242753;28;20300;-85
2023/08/21 03:33:15;;;;;;;6.35;5.50;;;18.70;99.90;;;;;;10244708;28;20761;-85
2023/08/21 03:38:19;;;;;;;8.13;5.57;;;18.60;99.90;;;;;;10243080;28;20241;-85
2023/08/21 03:43:22;;;;;;;6.47;5.88;;;18.50;99.90;;;;;;10243508;28;20261;-85
2023/08/21 03:48:25;;;;;;;6.57;5.07;;;18.40;99.90;;;;;;10244251;28;20677;-85
2023/08/21 03:53:27;;;;;;;6.40;5.80;;;18.50;99.90;;;;;;10244167;28;20621;-85
2023/08/21 03:58:31;;;;;;;6.47;5.85;;;18.30;99.90;;;;;;10244868;28;20705;-85
2023/08/21 04:03:34;;;;;;;6.32;5.75;;;18.30;99.90;;;;;;10244050;28;20257;-85
2023/08/21 04:08:37;;;;;;;6.70;6.07;;;18.40;99.90;;;;;;10242554;28;20238;-85
2023/08/21 04:13:40;;;;;;;6.00;5.40;;;18.60;99.90;;;;;;10245306;28;20689;-85
2023/08/21 04:18:42;;;;;;;6.32;5.63;;;18.80;99.90;;;;;;10243365;28;20230;-85
2023/08/21 04:23:46;;;;;;;7.60;5.78;;;18.90;99.90;;;;;;10243308;28;20853;-85
2023/08/21 04:28:48;;;;;;;6.93;6.20;;;18.90;99.90;;;;;;10241705;28;20238;-85
2023/08/21 04:33:51;;;;;;;9.55;6.88;;;18.90;99.90;;;;;;10242510;28;20762;-85
2023/08/21 04:38:55;;;;;;;8.55;7.07;;;18.90;99.90;;;;;;10254070;28;20264;-85
2023/08/21 04:43:57;;;;;;;8.38;6.65;;;19.10;99.90;;;;;;10256370;28;20280;-85
2023/08/21 04:49:01;;;;;;;8.35;7.55;;;19.20;99.90;;;;;;10253511;28;20620;-86
2023/08/21 04:54:03;;;;;;;10.40;7.93;;;19.10;99.90;;;;;;10280809;28;20728;-86
2023/08/21 04:59:07;;;;;;;7.05;6.22;;;19.10;99.90;;;;;;10265447;28;20765;-86
2023/08/21 05:04:09;;;;;;;6.68;6.07;;;19.30;99.90;;;;;;10276739;28;20210;-86
2023/08/21 05:09:12;;;;;;;6.82;6.13;;;19.30;99.90;;;;;;10240953;28;20245;-85
2023/08/21 05:14:15;;;;;;;6.80;5.75;;;19.50;99.90;;;;;;10255910;28;20291;-85
2023/08/21 05:19:18;;;;;;;5.63;5.10;;;19.40;99.90;;;;;;10266110;28;20236;-85
2023/08/21 05:24:20;;;;;;;6.30;5.70;;;19.50;99.90;;;;;;10269744;28;20723;-85
2023/08/21 05:29:31;;;;;;;5.78;5.22;;;19.50;99.90;;;;;;10253406;28;20290;-85
2023/08/21 05:34:35;;;;;;;7.82;5.18;;;19.20;99.90;;;;;;10262722;28;20263;-86
2023/08/21 05:39:37;;;;;;;9.38;5.50;;;18.90;99.90;;;;;;10256702;28;20315;-85
2023/08/21 05:44:42;;;;;;;7.00;4.68;;;18.80;99.90;;;;;;10274303;28;20621;-85
2023/08/21 05:49:44;;;;;;;8.32;5.30;;;18.80;99.90;;;;;;10240215;28;20206;-85
2023/08/21 05:54:47;;;;;;;5.85;5.10;;;18.80;99.90;;;;;;10239877;28;20264;-85
2023/08/21 05:59:50;;;;;;;6.85;4.63;;;18.90;99.90;;;;;;10241525;28;20253;-85
2023/08/21 06:04:52;;;;;;;4.13;3.75;;;18.90;99.90;;;;;;10241173;28;20731;-85
2023/08/21 06:09:58;;;;;;;12.23;4.68;;;19.10;99.90;;;;;;10244766;28;20202;-85
2023/08/21 06:15:00;;;;;;;6.80;5.22;;;19.20;99.90;;;;;;10285745;28;20635;-85
2023/08/21 06:20:08;;;;;;;5.40;4.30;;;19.10;99.90;;;;;;10286521;28;20717;-85
2023/08/21 06:25:12;;;;;;;6.22;5.10;;;19.20;99.90;;;;;;10284388;28;20697;-85
2023/08/21 06:30:16;;;;;;;5.38;4.35;;;19.30;99.90;;;;;;10284865;28;20241;-85
2023/08/21 06:35:19;;;;;;;6.03;4.63;;;19.40;99.90;;;;;;10248386;28;20288;-85
2023/08/21 06:40:22;;;;;;;5.68;3.83;;;19.50;99.90;;;;;;10250693;28;20253;-85
2023/08/21 06:45:28;;;;;;;5.28;4.53;;;19.50;99.90;;;;;;10289099;28;20251;-85
2023/08/21 06:50:31;;;;;;;6.60;4.35;;;19.80;99.90;;;;;;10281649;28;20206;-85
2023/08/21 06:55:33;;;;;;;4.72;4.00;;;20.00;99.90;;;;;;10266597;28;20246;-85
2023/08/21 07:00:36;;;;;;;4.18;3.78;;;20.40;99.90;;;;;;10263379;28;20658;-85
2023/08/21 07:05:38;;;;;;;5.47;3.53;;;20.70;99.90;;;;;;10269317;28;20755;-85
2023/08/21 07:10:42;;;;;;;4.43;4.03;;;21.20;99.90;;;;;;10261925;28;20304;-84
2023/08/21 07:15:47;;;;;;;4.93;3.40;;;21.40;99.90;;;;;;10262592;28;20306;-85
2023/08/21 07:20:53;;;;;;;4.70;4.20;;;21.40;99.90;;;;;;10259801;28;20657;-85
2023/08/21 07:25:56;;;;;;;5.75;2.78;;;21.60;99.90;;;;;;10261667;28;20246;-84
2023/08/21 07:30:58;;;;;;;5.32;3.97;;;21.70;99.90;;;;;;10263529;28;20237;-85
2023/08/21 07:36:03;;;;;;;4.18;3.13;;;21.80;99.90;;;;;;10274366;28;20290;-85
2023/08/21 07:41:10;;;;;;;5.25;3.67;;;21.90;99.90;;;;;;10290039;28;20591;-83
2023/08/21 07:46:15;;;;;;;4.22;2.92;;;22.10;99.90;;;;;;10320362;28;20646;-84
2023/08/21 07:51:18;;;;;;;3.80;3.40;;;22.30;98.60;;;;;;10302970;28;20209;-83
2023/08/21 07:56:21;;;;;;;4.28;3.90;;;22.40;99.00;;;;;;10311924;28;20182;-85
2023/08/21 08:01:23;;;;;;;5.05;3.35;;;22.40;99.70;;;;;;10312154;28;20221;-85
2023/08/21 08:06:26;;;;;;;6.53;3.75;;;22.40;99.90;;;;;;10273112;28;20214;-85
2023/08/21 08:11:29;;;;;;;8.00;4.10;;;22.50;98.80;;;;;;10296107;28;20209;-85
2023/08/21 08:16:31;;;;;;;5.30;3.85;;;22.80;97.90;;;;;;10303246;28;20835;-86
2023/08/21 08:21:36;;;;;;;4.30;3.90;;;23.20;97.70;;;;;;10286670;28;20351;-85
2023/08/21 08:26:40;;;;;;;4.93;4.30;;;23.50;97.00;;;;;;10277605;28;20256;-85
2023/08/21 08:31:43;;;;;;;5.32;3.80;;;23.80;98.20;;;;;;10320372;28;20213;-85
2023/08/21 08:36:46;;;;;;;5.32;3.25;;;23.90;95.80;;;;;;10287274;28;20210;-85
2023/08/21 08:41:57;;;;;;;3.60;3.22;;;24.00;91.40;;;;;;10282836;28;20214;-84
2023/08/21 08:47:01;;;;;;;3.85;3.40;;;24.20;92.40;;;;;;10283464;28;20215;-84
2023/08/21 08:52:04;;;;;;;4.40;4.00;;;24.40;91.80;;;;;;10318807;28;20218;-85
2023/08/21 08:57:07;;;;;;;4.25;3.50;;;24.60;92.50;;;;;;10277082;28;20218;-85
2023/08/21 09:02:09;;;;;;;4.97;4.53;;;24.90;93.30;;;;;;10277137;28;20218;-85
2023/08/21 09:07:12;;;;;;;3.42;3.13;;;25.00;93.90;;;;;;10263431;28;20229;-84
2023/08/21 09:12:16;;;;;;;3.83;3.45;;;25.00;92.70;;;;;;10256201;28;20214;-86
2023/08/21 09:17:19;;;;;;;4.47;3.83;;;25.10;90.80;;;;;;10277798;28;20214;-85
2023/08/21 09:22:22;;;;;;;6.90;3.55;;;25.30;92.20;;;;;;10257518;28;20594;-85
2023/08/21 09:27:24;;;;;;;6.80;3.28;;;25.20;85.90;;;;;;10265857;28;20230;-85
2023/08/21 09:32:27;;;;;;;3.35;3.10;;;25.30;88.40;;;;;;10246797;28;20817;-85
2023/08/21 09:37:30;;;;;;;5.15;3.67;;;25.40;89.30;;;;;;10248982;28;20238;-84
2023/08/21 09:42:33;;;;;;;4.00;2.80;;;25.50;82.80;;;;;;10253469;28;20338;-84
2023/08/21 09:47:39;;;;;;;5.60;2.97;;;25.30;84.60;;;;;;10244703;29;20252;-84
2023/08/21 09:52:43;;;;;;;4.35;3.05;;;25.40;82.10;;;;;;10243452;28;20233;-84
2023/08/21 09:57:45;;;;;;;5.55;2.88;;;25.20;80.10;;;;;;10250181;28;20210;-84
2023/08/21 10:02:51;;;;;;;5.57;3.42;;;25.10;74.50;;;;;;10244623;28;20234;-84
2023/08/21 10:07:55;;;;;;;3.92;3.42;;;25.20;76.00;;;;;;10242895;28;20207;-85
2023/08/21 10:12:59;;;;;;;7.38;2.88;;;25.40;81.80;;;;;;10243670;28;20584;-85
2023/08/21 10:18:25;;;;;;;5.40;2.85;;;25.40;80.20;;;;;;10273048;28;20206;-85
2023/08/21 10:23:29;;;;;;;6.90;3.63;;;25.40;75.80;;;;;;10283347;28;20261;-85
2023/08/21 10:28:48;;;;;;;3.25;2.90;;;25.60;80.00;;;;;;10271461;28;20236;-86
2023/08/21 10:33:51;;;;;;;3.55;2.70;;;25.60;68.40;;;;;;10241901;28;20568;-86
2023/08/21 10:39:01;;;;;;;4.55;3.40;;;25.50;74.30;;;;;;10245353;28;20261;-86
2023/08/21 10:44:06;;;;;;;4.55;3.17;;;25.50;74.40;;;;;;10271017;28;20287;-86
2023/08/21 10:49:08;;;;;;;3.90;3.60;;;25.70;84.20;;;;;;10257861;28;20626;-89
2023/08/21 10:54:13;;;;;;;3.97;3.40;;;25.70;82.50;;;;;;10284859;28;20209;-90
2023/08/21 10:59:16;;;;;;;3.95;3.63;;;25.80;77.20;;;;;;10291898;28;20623;-89
2023/08/21 11:04:18;;;;;;;6.78;2.85;;;25.90;81.20;;;;;;10296011;28;20601;-89
2023/08/21 11:09:21;;;;;;;6.18;3.28;;;25.90;67.70;;;;;;10293171;28;20214;-88
2023/08/21 11:14:27;;;;;;;3.92;3.53;;;25.90;75.50;;;;;;10293028;28;20255;-89
2023/08/21 11:19:33;;;;;;;8.90;4.03;;;25.90;62.20;;;;;;10291759;28;20228;-88
2023/08/21 11:24:45;;;;;;;7.05;3.55;;;25.90;62.40;;;;;;10268630;28;20324;-85
2023/08/21 11:29:50;;;;;;;4.93;3.25;;;26.10;72.30;;;;;;10280097;28;20580;-86
2023/08/21 11:34:57;;;;;;;4.30;3.05;;;26.00;75.50;;;;;;10271893;28;20554;-89
2023/08/21 11:40:06;;;;;;;6.88;3.95;;;25.90;70.30;;;;;;10273112;28;20214;-89
2023/08/21 11:45:10;;;;;;;4.43;3.30;;;25.90;69.10;;;;;;10290770;28;20221;-90
2023/08/21 11:50:18;;;;;;;5.72;3.50;;;26.20;65.70;;;;;;10291379;28;20271;-89
2023/08/21 11:55:20;;;;;;;4.20;3.80;;;26.20;67.00;;;;;;10288097;28;20217;-90
2023/08/21 12:00:28;;;;;;;4.30;3.47;;;26.20;67.70;;;;;;10291973;28;20202;-89
2023/08/21 12:05:31;;;;;;;4.65;2.75;;;26.30;67.40;;;;;;10287928;28;20603;-87
2023/08/21 12:10:34;;;;;;;5.30;2.85;;;26.30;60.00;;;;;;10288893;28;20235;-87
2023/08/21 12:15:37;;;;;;;3.33;2.92;;;26.40;60.00;;;;;;10256078;28;20210;-87
2023/08/21 12:20:39;;;;;;;5.55;2.53;;;26.60;60.70;;;;;;10244082;28;20279;-87
2023/08/21 12:25:42;;;;;;;4.88;2.80;;;26.70;61.10;;;;;;10263887;28;20310;-87
2023/08/21 12:30:44;;;;;;;4.47;3.13;;;26.70;62.40;;;;;;10285034;28;20267;-87
2023/08/21 12:35:47;;;;;;;3.67;2.50;;;26.70;62.80;;;;;;10283308;28;20233;-87
2023/08/21 12:40:50;;;;;;;3.95;2.83;;;26.80;64.10;;;;;;10284259;28;20237;-87
2023/08/21 12:45:52;;;;;;;2.75;2.55;;;27.00;65.90;;;;;;10283611;28;20295;-87
2023/08/21 12:50:55;;;;;;;6.07;4.03;;;27.20;65.40;;;;;;10273681;28;20251;-87
2023/08/21 12:55:57;;;;;;;4.68;3.28;;;27.20;59.50;;;;;;10249182;28;20241;-87
2023/08/21 13:01:00;;;;;;;3.33;2.50;;;27.30;62.80;;;;;;10261507;28;20268;-86
2023/08/21 13:06:03;;;;;;;3.25;2.75;;;27.20;65.50;;;;;;10249884;28;20350;-87
2023/08/21 13:11:05;;;;;;;3.20;2.00;;;27.20;65.40;;;;;;10224079;28;20245;-87
2023/08/21 13:16:08;;;;;;;2.63;2.22;;;27.10;66.60;;;;;;10245098;28;20242;-87
2023/08/21 13:21:10;;;;;;;3.42;2.25;;;27.00;67.50;;;;;;10239824;28;20230;-87
2023/08/21 13:26:13;;;;;;;4.07;2.60;;;27.00;67.70;;;;;;9904271;28;10000439;-87
2023/08/21 13:31:16;;;;;;;4.25;2.65;;;27.00;70.00;;;;;;10277048;28;20229;-87
2023/08/21 13:36:20;;;;;;;2.60;2.40;;;27.00;69.70;;;;;;10278451;28;20291;-87
2023/08/21 13:41:26;;;;;;;4.25;2.70;;;27.10;71.00;;;;;;10277337;28;20271;-87
2023/08/21 13:46:29;;;;;;;5.18;3.00;;;27.10;70.10;;;;;;10258973;28;20707;-87
2023/08/21 13:51:32;;;;;;;2.78;2.53;;;27.10;69.40;;;;;;10258548;28;20230;-87
2023/08/21 13:56:34;;;;;;;4.10;2.45;;;27.10;70.20;;;;;;10240364;28;20315;-88
2023/08/21 14:01:39;;;;;;;4.22;2.75;;;27.10;70.60;;;;;;10236091;28;20716;-85
2023/08/21 14:06:42;;;;;;;5.57;2.97;;;27.20;72.70;;;;;;10237699;28;20299;-88
2023/08/21 14:11:45;;;;;;;2.78;2.55;;;27.10;72.60;;;;;;10249361;28;20292;-88
2023/08/21 14:16:52;;;;;;;5.32;2.45;;;27.00;73.20;;;;;;10238398;28;20315;-88
2023/08/21 14:22:21;;;;;;;2.92;2.15;;;27.00;74.90;;;;;;10236544;28;20292;-88
2023/08/21 14:27:23;;;;;;;4.32;3.92;;;27.00;75.40;;;;;;10265350;28;20648;-87
2023/08/21 14:32:26;;;;;;;5.78;3.10;;;27.10;67.10;;;;;;10253005;28;20279;-88
2023/08/21 14:37:29;;;;;;;3.75;3.05;;;27.00;72.30;;;;;;10243010;28;20281;-88
2023/08/21 14:42:31;;;;;;;3.70;2.78;;;27.00;73.40;;;;;;10259778;28;20260;-88
2023/08/21 14:47:35;;;;;;;8.45;3.67;;;27.00;75.00;;;;;;10265365;28;20237;-88
2023/08/21 14:52:38;;;;;;;3.78;3.47;;;26.90;73.10;;;;;;10279980;28;20230;-88
2023/08/21 14:57:41;;;;;;;3.97;2.33;;;26.90;77.10;;;;;;10253842;28;20303;-88
2023/08/21 15:02:44;;;;;;;5.80;3.78;;;26.90;76.30;;;;;;10249127;28;20649;-88
2023/08/21 15:07:47;;;;;;;4.10;2.60;;;26.70;65.30;;;;;;10249346;28;20230;-88
2023/08/21 15:12:49;;;;;;;2.63;2.38;;;26.70;74.80;;;;;;10281644;28;20233;-88
2023/08/21 15:17:52;;;;;;;4.40;3.15;;;26.80;75.10;;;;;;10285428;28;20672;-88
2023/08/21 15:22:55;;;;;;;2.03;1.83;;;26.80;76.70;;;;;;10249712;28;20312;-88
2023/08/21 15:27:57;;;;;;;4.38;2.63;;;26.90;78.50;;;;;;10227963;29;20308;-88
2023/08/21 15:33:00;;;;;;;3.70;3.40;;;26.90;77.40;;;;;;10245272;28;20295;-87
2023/08/21 15:38:03;;;;;;;2.90;2.70;;;26.80;73.30;;;;;;10248154;28;20733;-87
2023/08/21 15:43:07;;;;;;;3.63;3.10;;;26.70;74.20;;;;;;10263918;28;20311;-85
2023/08/21 15:48:09;;;;;;;5.32;3.85;;;26.80;79.10;;;;;;9965124;28;9999972;-88
2023/08/21 15:53:13;;;;;;;9.05;4.13;;;26.70;70.50;;;;;;10456375;28;20279;-89
2023/08/21 15:58:16;;;;;;;5.38;3.78;;;26.70;69.60;;;;;;10286848;28;20245;-88
2023/08/21 16:03:19;;;;;;;4.88;4.15;;;26.60;69.80;;;;;;10274037;28;20253;-88
2023/08/21 16:08:22;;;;;;;3.92;3.55;;;26.50;70.80;;;;;;10280794;28;20701;-88
2023/08/21 16:13:24;;;;;;;5.72;4.18;;;26.40;72.20;;;;;;10282291;28;20249;-88
2023/08/21 16:18:27;;;;;;;4.53;4.07;;;26.40;72.70;;;;;;10279894;28;20237;-88
2023/08/21 16:23:29;;;;;;;6.70;4.85;;;26.40;72.90;;;;;;10270520;28;20344;-88
2023/08/21 16:28:32;;;;;;;6.07;3.75;;;26.30;68.60;;;;;;10271505;28;20656;-88
2023/08/21 16:33:36;;;;;;;5.38;3.72;;;26.10;67.70;;;;;;10274252;28;20641;-84
2023/08/21 16:38:38;;;;;;;4.30;3.55;;;26.10;69.80;;;;;;10244735;28;20271;-86
2023/08/21 16:43:42;;;;;;;6.80;4.07;;;26.10;65.60;;;;;;10261287;28;20311;-86
2023/08/21 16:48:44;;;;;;;6.07;3.50;;;26.00;65.40;;;;;;10259691;28;20214;-86
2023/08/21 16:53:47;;;;;;;10.23;4.78;;;26.00;66.50;;;;;;10242402;28;20264;-86
2023/08/21 16:58:49;;;;;;;8.23;4.35;;;26.00;65.60;;;;;;10259618;28;20246;-86
2023/08/21 17:03:52;;;;;;;6.55;3.55;;;26.00;66.80;;;;;;10280786;28;20325;-86
2023/08/21 17:08:55;;;;;;;4.22;3.28;;;25.90;65.90;;;;;;10282074;28;20785;-86
2023/08/21 17:13:57;;;;;;;5.75;3.58;;;25.80;66.10;;;;;;10280128;28;20307;-86
2023/08/21 17:19:00;;;;;;;5.22;4.20;;;25.60;67.70;;;;;;10247934;28;20356;-85
2023/08/21 17:24:02;;;;;;;7.97;4.15;;;25.40;69.00;;;;;;10241052;28;20261;-86
2023/08/21 17:29:05;;;;;;;5.93;3.97;;;25.30;70.80;;;;;;10255323;28;20242;-91
2023/08/21 17:34:07;;;;;;;7.82;3.17;;;25.10;71.30;;;;;;10258687;28;20245;-89
2023/08/21 17:39:12;;;;;;;5.22;3.38;;;24.80;76.90;;;;;;10265349;28;20245;-92
2023/08/21 17:44:14;;;;;;;4.97;4.43;;;24.50;78.20;;;;;;10258588;28;20273;-93
2023/08/21 17:49:17;;;;;;;7.50;3.90;;;24.00;90.20;;;;;;10280046;28;20281;-92
2023/08/21 17:54:32;;;;;;;10.48;5.18;;;23.60;92.50;;;;;;10245385;28;20237;-93
2023/08/21 17:59:35;;;;;;;6.43;4.63;;;23.30;94.70;;;;;;10268804;28;20335;-93
2023/08/21 18:04:38;;;;;;;6.40;4.07;;;23.00;97.60;;;;;;10279733;28;20257;-93
2023/08/21 18:09:42;;;;;;;5.75;4.45;;;22.70;98.50;;;;;;10252973;28;20620;-94
2023/08/21 18:14:44;;;;;;;7.78;4.22;;;22.40;97.70;;;;;;10269996;28;20238;-94
2023/08/21 18:19:47;;;;;;;7.47;4.30;;;22.20;99.90;;;;;;10239300;28;20309;-92
2023/08/21 18:24:49;;;;;;;7.00;4.60;;;22.10;98.60;;;;;;10244922;28;20269;-94
2023/08/21 18:29:52;;;;;;;7.22;5.20;;;22.00;99.90;;;;;;10250507;28;20315;-92
2023/08/21 18:34:54;;;;;;;8.85;4.97;;;21.90;99.90;;;;;;10230055;28;20649;-93
2023/08/21 18:39:57;;;;;;;10.35;4.28;;;21.60;99.90;;;;;;10274178;28;20658;-92
2023/08/21 18:44:59;;;;;;;6.53;5.43;;;21.30;99.90;;;;;;10297790;28;20261;-93
2023/08/21 18:50:02;;;;;;;7.90;4.72;;;20.90;99.90;;;;;;10246090;28;20625;-93
2023/08/21 18:55:06;;;;;;;10.60;5.40;;;20.60;99.90;;;;;;10262405;28;20237;-93
2023/08/21 19:00:12;;;;;;;9.20;4.60;;;20.40;99.90;;;;;;10261757;28;20648;-94
2023/08/21 19:05:14;;;;;;;6.40;4.95;;;20.20;99.90;;;;;;10269275;28;20258;-94
2023/08/21 19:10:17;;;;;;;7.82;4.57;;;20.20;99.90;;;;;;10266744;28;20234;-94
2023/08/21 19:15:20;;;;;;;7.65;4.60;;;20.00;99.90;;;;;;10265160;28;20768;-92
2023/08/21 19:20:24;;;;;;;10.20;4.43;;;19.90;99.90;;;;;;10263571;28;20322;-93
2023/08/21 19:25:28;;;;;;;14.50;5.43;;;19.80;99.90;;;;;;10267012;28;20270;-93
2023/08/21 19:30:35;;;;;;;9.35;5.32;;;19.60;99.90;;;;;;10271121;28;20296;-94
2023/08/21 19:35:37;;;;;;;9.45;4.32;;;19.40;99.90;;;;;;10262177;28;20264;-93
2023/08/21 19:40:43;;;;;;;10.75;4.60;;;19.30;99.90;;;;;;10268272;28;20299;-93
2023/08/21 19:45:54;;;;;;;6.63;4.78;;;19.00;99.90;;;;;;10265123;28;20683;-93
2023/08/21 19:50:57;;;;;;;9.88;4.50;;;18.80;99.90;;;;;;10243783;28;20246;-93
2023/08/21 19:56:00;;;;;;;7.35;4.75;;;18.70;99.90;;;;;;10252533;28;20295;-94
2023/08/21 20:01:09;;;;;;;5.50;4.93;;;18.50;99.90;;;;;;10272438;28;20797;-92
2023/08/21 20:06:14;;;;;;;6.57;5.35;;;18.50;99.90;;;;;;10286096;28;20650;-93
2023/08/21 20:11:17;;;;;;;4.55;3.25;;;18.40;99.90;;;;;;10285294;28;20237;-93
2023/08/21 20:16:20;;;;;;;5.35;3.08;;;18.30;99.90;;;;;;10257065;28;20234;-94
2023/08/21 20:21:23;;;;;;;6.80;3.85;;;18.50;99.90;;;;;;10257280;28;20696;-93
2023/08/21 20:26:27;;;;;;;7.45;4.03;;;18.60;99.90;;;;;;10264904;28;20322;-94
2023/08/21 20:31:32;;;;;;;7.25;3.25;;;18.70;99.90;;;;;;10261530;28;20283;-93
2023/08/21 20:36:36;;;;;;;3.40;3.10;;;18.80;99.90;;;;;;10268901;28;20256;-94
2023/08/21 20:41:40;;;;;;;6.32;2.67;;;19.00;99.90;;;;;;10257573;28;20219;-93
2023/08/21 20:46:42;;;;;;;4.78;2.75;;;19.00;99.90;;;;;;10262125;28;20237;-93
2023/08/21 20:51:45;;;;;;;4.53;3.15;;;19.00;99.90;;;;;;10302810;28;20207;-94
2023/08/21 20:56:48;;;;;;;8.52;2.63;;;18.90;99.90;;;;;;10265848;28;20267;-94
2023/08/21 21:01:52;;;;;;;3.67;3.08;;;18.80;99.90;;;;;;10284618;28;20789;-93
2023/08/21 21:06:55;;;;;;;8.98;2.78;;;18.70;99.90;;;;;;10285610;28;20229;-94
2023/08/21 21:11:57;;;;;;;3.38;2.45;;;18.60;99.90;;;;;;10257706;28;20272;-96
2023/08/21 21:17:00;;;;;;;3.30;2.50;;;18.70;99.90;;;;;;10254553;28;20229;-96
2023/08/21 21:22:02;;;;;;;3.03;2.30;;;18.70;99.90;;;;;;10268458;28;20210;-96
2023/08/21 21:27:10;;;;;;;4.15;2.55;;;18.60;99.90;;;;;;10263919;28;20261;-96
2023/08/21 21:32:20;;;;;;;2.45;2.22;;;18.50;99.90;;;;;;10253845;28;20214;-95
2023/08/21 21:37:24;;;;;;;4.63;2.75;;;18.40;99.90;;;;;;10273548;28;20225;-95
2023/08/21 21:42:27;;;;;;;6.30;3.35;;;18.40;99.90;;;;;;10266033;28;20636;-94
2023/08/21 21:47:30;;;;;;;4.22;2.92;;;18.30;99.90;;;;;;10283549;28;20765;-92
2023/08/21 21:52:33;;;;;;;4.25;3.42;;;18.20;99.90;;;;;;10266007;28;20276;-91
2023/08/21 21:57:35;;;;;;;5.38;2.95;;;18.00;99.90;;;;;;10261221;28;20242;-92
2023/08/21 22:02:40;;;;;;;9.40;3.38;;;17.80;99.90;;;;;;10252828;28;20238;-92
2023/08/21 22:07:43;;;;;;;2.80;2.50;;;17.70;99.90;;;;;;10256228;28;20250;-92
2023/08/21 22:12:46;;;;;;;5.10;3.10;;;17.60;99.90;;;;;;10280360;28;20229;-93
2023/08/21 22:17:49;;;;;;;7.15;2.83;;;18.00;99.90;;;;;;10253581;28;20210;-93
2023/08/21 22:22:52;;;;;;;2.70;2.20;;;18.00;99.90;;;;;;10242678;28;20221;-93
2023/08/21 22:27:55;;;;;;;3.05;2.10;;;18.10;99.90;;;;;;10239957;28;20266;-93
2023/08/21 22:32:58;;;;;;;3.85;2.67;;;18.30;99.90;;;;;;10258642;28;20206;-92
2023/08/21 22:38:01;;;;;;;4.70;2.50;;;18.40;99.90;;;;;;10264628;28;20252;-92
2023/08/21 22:43:03;;;;;;;3.92;2.85;;;18.40;99.90;;;;;;10251777;28;20214;-92
2023/08/21 22:48:06;;;;;;;5.38;3.28;;;18.50;99.90;;;;;;10244927;28;20226;-93
2023/08/21 22:53:09;;;;;;;4.47;2.83;;;18.20;99.90;;;;;;10261271;28;20230;-93
2023/08/21 22:58:11;;;;;;;6.45;2.58;;;18.00;99.90;;;;;;10256769;28;20229;-93
2023/08/21 23:03:14;;;;;;;4.18;2.92;;;17.80;99.90;;;;;;10271056;28;20255;-93
2023/08/21 23:08:16;;;;;;;2.85;2.65;;;17.70;99.90;;;;;;10270705;28;20253;-92
2023/08/21 23:13:19;;;;;;;2.30;2.10;;;17.90;99.90;;;;;;10283083;28;20806;-93
2023/08/21 23:18:22;;;;;;;2.97;2.47;;;18.30;99.90;;;;;;10270494;28;20233;-93
2023/08/21 23:23:26;;;;;;;4.45;2.45;;;18.50;99.90;;;;;;10286143;28;20258;-93
2023/08/21 23:28:29;;;;;;;7.10;3.08;;;18.30;99.90;;;;;;10257127;28;20264;-94
2023/08/21 23:33:32;;;;;;;5.68;2.75;;;18.20;99.90;;;;;;10245486;28;20237;-93
2023/08/21 23:38:35;;;;;;;3.28;2.47;;;18.10;99.90;;;;;;10255311;28;20237;-92
2023/08/21 23:43:37;;;;;;;3.25;2.05;;;18.00;99.90;;;;;;10285207;28;20612;-92
2023/08/21 23:48:41;;;;;;;2.95;2.40;;;18.30;99.90;;;;;;10265236;28;20272;-93
2023/08/21 23:53:44;;;;;;;4.20;2.97;;;18.80;99.90;;;;;;10245149;28;20242;-93
2023/08/21 23:58:47;;;;;;;5.18;2.90;;;18.60;99.90;;;;;;10244927;28;20987;-93
